sensor_id;sensor_type;location;lat;lon;timestamp;temperature;humidity
18287;DHT22;9269;50.838;12.094;2023-04-01T00:01:29;13.30;55.50
18287;DHT22;9269;50.838;12.094;2023-04-01T00:04:00;13.30;55.50
18287;DHT22;9269;50.838;12.094;2023-04-01T00:06:32;13.30;55.40
18287;DHT22;9269;50.838;12.094;2023-04-01T00:09:01;13.30;55.20
18287;DHT22;9269;50.838;12.094;2023-04-01T00:11:32;13.30;55.50
18287;DHT22;9269;50.838;12.094;2023-04-01T00:14:02;13.30;55.60
18287;DHT22;9269;50.838;12.094;2023-04-01T00:16:30;13.30;55.30
18287;DHT22;9269;50.838;12.094;2023-04-01T00:19:00;13.30;55.40
18287;DHT22;9269;50.838;12.094;2023-04-01T00:21:29;13.30;55.30
18287;DHT22;9269;50.838;12.094;2023-04-01T00:23:59;13.30;55.30
18287;DHT22;9269;50.838;12.094;2023-04-01T00:26:28;13.30;55.40
18287;DHT22;9269;50.838;12.094;2023-04-01T00:29:00;13.20;55.40
18287;DHT22;9269;50.838;12.094;2023-04-01T00:31:33;13.20;55.00
18287;DHT22;9269;50.838;12.094;2023-04-01T00:34:03;13.20;55.60
18287;DHT22;9269;50.838;12.094;2023-04-01T00:36:32;13.10;55.10
18287;DHT22;9269;50.838;12.094;2023-04-01T00:39:03;13.30;55.80
18287;DHT22;9269;50.838;12.094;2023-04-01T00:41:32;13.20;55.60
18287;DHT22;9269;50.838;12.094;2023-04-01T00:44:19;13.20;55.80
18287;DHT22;9269;50.838;12.094;2023-04-01T00:46:50;13.20;55.50
18287;DHT22;9269;50.838;12.094;2023-04-01T00:49:23;13.20;55.60
18287;DHT22;9269;50.838;12.094;2023-04-01T00:51:55;13.20;55.50
18287;DHT22;9269;50.838;12.094;2023-04-01T00:54:30;13.10;55.60
18287;DHT22;9269;50.838;12.094;2023-04-01T00:57:05;13.20;55.20
18287;DHT22;9269;50.838;12.094;2023-04-01T00:59:39;13.10;55.30
18287;DHT22;9269;50.838;12.094;2023-04-01T01:02:12;13.20;55.40
18287;DHT22;9269;50.838;12.094;2023-04-01T01:04:41;13.10;55.60
18287;DHT22;9269;50.838;12.094;2023-04-01T01:07:20;13.10;55.30
18287;DHT22;9269;50.838;12.094;2023-04-01T01:10:01;13.10;55.60
18287;DHT22;9269;50.838;12.094;2023-04-01T01:12:40;13.10;55.30
18287;DHT22;9269;50.838;12.094;2023-04-01T01:15:19;13.10;55.20
18287;DHT22;9269;50.838;12.094;2023-04-01T01:17:57;13.10;55.50
18287;DHT22;9269;50.838;12.094;2023-04-01T01:26:59;13.00;55.30
18287;DHT22;9269;50.838;12.094;2023-04-01T01:29:58;13.00;55.00
18287;DHT22;9269;50.838;12.094;2023-04-01T01:35:43;13.10;55.50
18287;DHT22;9269;50.838;12.094;2023-04-01T01:38:15;13.00;55.40
18287;DHT22;9269;50.838;12.094;2023-04-01T01:40:49;13.10;55.20
18287;DHT22;9269;50.838;12.094;2023-04-01T01:43:22;13.00;55.30
18287;DHT22;9269;50.838;12.094;2023-04-01T01:45:54;13.00;55.20
18287;DHT22;9269;50.838;12.094;2023-04-01T01:48:25;13.00;55.30
18287;DHT22;9269;50.838;12.094;2023-04-01T01:50:57;12.90;55.30
18287;DHT22;9269;50.838;12.094;2023-04-01T01:53:28;13.00;55.30
18287;DHT22;9269;50.838;12.094;2023-04-01T01:55:57;12.90;55.40
18287;DHT22;9269;50.838;12.094;2023-04-01T01:58:29;12.90;55.40
18287;DHT22;9269;50.838;12.094;2023-04-01T02:01:02;13.00;55.40
18287;DHT22;9269;50.838;12.094;2023-04-01T02:03:35;12.90;55.60
18287;DHT22;9269;50.838;12.094;2023-04-01T02:06:11;12.90;55.20
18287;DHT22;9269;50.838;12.094;2023-04-01T02:08:49;13.00;55.80
18287;DHT22;9269;50.838;12.094;2023-04-01T02:11:29;13.00;55.50
18287;DHT22;9269;50.838;12.094;2023-04-01T02:14:04;13.00;55.40
18287;DHT22;9269;50.838;12.094;2023-04-01T02:16:36;12.90;55.20
18287;DHT22;9269;50.838;12.094;2023-04-01T02:19:11;12.90;55.40
18287;DHT22;9269;50.838;12.094;2023-04-01T02:21:43;13.00;55.60
18287;DHT22;9269;50.838;12.094;2023-04-01T02:24:13;12.90;55.60
18287;DHT22;9269;50.838;12.094;2023-04-01T02:26:43;12.90;55.10
18287;DHT22;9269;50.838;12.094;2023-04-01T02:29:13;13.00;55.30
18287;DHT22;9269;50.838;12.094;2023-04-01T02:31:42;13.00;55.50
18287;DHT22;9269;50.838;12.094;2023-04-01T02:34:12;12.90;55.20
18287;DHT22;9269;50.838;12.094;2023-04-01T02:36:44;12.90;55.30
18287;DHT22;9269;50.838;12.094;2023-04-01T02:39:17;12.90;55.70
18287;DHT22;9269;50.838;12.094;2023-04-01T02:41:46;12.90;55.40
18287;DHT22;9269;50.838;12.094;2023-04-01T02:44:15;12.90;55.80
18287;DHT22;9269;50.838;12.094;2023-04-01T02:46:46;13.00;55.10
18287;DHT22;9269;50.838;12.094;2023-04-01T02:49:15;13.00;55.50
18287;DHT22;9269;50.838;12.094;2023-04-01T02:51:45;12.90;55.30
18287;DHT22;9269;50.838;12.094;2023-04-01T02:54:15;12.90;55.10
18287;DHT22;9269;50.838;12.094;2023-04-01T02:56:44;12.90;55.20
18287;DHT22;9269;50.838;12.094;2023-04-01T02:59:14;12.90;55.00
18287;DHT22;9269;50.838;12.094;2023-04-01T03:01:44;12.90;55.30
18287;DHT22;9269;50.838;12.094;2023-04-01T03:04:13;12.90;55.20
18287;DHT22;9269;50.838;12.094;2023-04-01T03:06:42;12.90;54.90
18287;DHT22;9269;50.838;12.094;2023-04-01T03:09:14;12.90;54.80
18287;DHT22;9269;50.838;12.094;2023-04-01T03:11:45;13.00;55.00
18287;DHT22;9269;50.838;12.094;2023-04-01T03:14:15;12.90;54.90
18287;DHT22;9269;50.838;12.094;2023-04-01T03:16:45;12.90;54.90
18287;DHT22;9269;50.838;12.094;2023-04-01T03:19:14;12.90;55.00
18287;DHT22;9269;50.838;12.094;2023-04-01T03:21:42;12.90;54.60
18287;DHT22;9269;50.838;12.094;2023-04-01T03:24:12;12.90;54.60
18287;DHT22;9269;50.838;12.094;2023-04-01T03:26:42;12.90;54.80
18287;DHT22;9269;50.838;12.094;2023-04-01T03:29:12;12.90;54.50
18287;DHT22;9269;50.838;12.094;2023-04-01T03:31:43;12.90;54.40
18287;DHT22;9269;50.838;12.094;2023-04-01T03:34:13;12.90;54.60
18287;DHT22;9269;50.838;12.094;2023-04-01T03:36:42;12.90;54.90
18287;DHT22;9269;50.838;12.094;2023-04-01T03:39:12;12.80;54.40
18287;DHT22;9269;50.838;12.094;2023-04-01T03:41:42;12.90;54.60
18287;DHT22;9269;50.838;12.094;2023-04-01T03:44:12;12.90;54.60
18287;DHT22;9269;50.838;12.094;2023-04-01T03:46:41;12.80;54.90
18287;DHT22;9269;50.838;12.094;2023-04-01T03:49:10;12.80;54.80
18287;DHT22;9269;50.838;12.094;2023-04-01T03:51:41;12.80;54.70
18287;DHT22;9269;50.838;12.094;2023-04-01T03:54:12;12.80;54.80
18287;DHT22;9269;50.838;12.094;2023-04-01T03:56:41;12.80;54.70
18287;DHT22;9269;50.838;12.094;2023-04-01T03:59:13;12.80;54.40
18287;DHT22;9269;50.838;12.094;2023-04-01T04:01:42;12.80;54.90
18287;DHT22;9269;50.838;12.094;2023-04-01T04:04:11;12.80;54.70
18287;DHT22;9269;50.838;12.094;2023-04-01T04:06:40;12.80;54.70
18287;DHT22;9269;50.838;12.094;2023-04-01T04:09:10;12.80;54.70
18287;DHT22;9269;50.838;12.094;2023-04-01T04:11:40;12.70;54.70
18287;DHT22;9269;50.838;12.094;2023-04-01T04:14:12;12.80;55.00
18287;DHT22;9269;50.838;12.094;2023-04-01T04:16:43;12.80;54.50
18287;DHT22;9269;50.838;12.094;2023-04-01T04:19:13;12.90;54.60
18287;DHT22;9269;50.838;12.094;2023-04-01T04:21:43;12.90;54.90
18287;DHT22;9269;50.838;12.094;2023-04-01T04:24:12;12.90;54.90
18287;DHT22;9269;50.838;12.094;2023-04-01T04:26:42;12.90;54.40
18287;DHT22;9269;50.838;12.094;2023-04-01T04:29:10;12.80;54.90
18287;DHT22;9269;50.838;12.094;2023-04-01T04:31:39;12.80;54.60
18287;DHT22;9269;50.838;12.094;2023-04-01T04:34:07;12.80;54.70
18287;DHT22;9269;50.838;12.094;2023-04-01T04:36:36;12.80;54.50
18287;DHT22;9269;50.838;12.094;2023-04-01T04:39:05;12.90;54.70
18287;DHT22;9269;50.838;12.094;2023-04-01T04:41:33;12.70;54.50
18287;DHT22;9269;50.838;12.094;2023-04-01T04:44:05;12.80;54.70
18287;DHT22;9269;50.838;12.094;2023-04-01T04:46:33;12.80;54.60
18287;DHT22;9269;50.838;12.094;2023-04-01T04:49:04;12.80;54.70
18287;DHT22;9269;50.838;12.094;2023-04-01T04:51:33;12.80;54.30
18287;DHT22;9269;50.838;12.094;2023-04-01T04:54:03;12.80;54.70
18287;DHT22;9269;50.838;12.094;2023-04-01T04:56:33;12.80;54.60
18287;DHT22;9269;50.838;12.094;2023-04-01T04:59:07;12.80;54.90
18287;DHT22;9269;50.838;12.094;2023-04-01T05:01:36;12.80;54.50
18287;DHT22;9269;50.838;12.094;2023-04-01T05:04:06;12.80;54.80
18287;DHT22;9269;50.838;12.094;2023-04-01T05:06:36;12.80;54.80
18287;DHT22;9269;50.838;12.094;2023-04-01T05:09:05;12.80;54.60
18287;DHT22;9269;50.838;12.094;2023-04-01T05:11:34;12.80;54.50
18287;DHT22;9269;50.838;12.094;2023-04-01T05:14:03;12.80;54.70
18287;DHT22;9269;50.838;12.094;2023-04-01T05:16:34;12.90;54.50
18287;DHT22;9269;50.838;12.094;2023-04-01T05:19:03;12.90;54.60
18287;DHT22;9269;50.838;12.094;2023-04-01T05:21:32;12.80;54.50
18287;DHT22;9269;50.838;12.094;2023-04-01T05:24:00;12.90;54.50
18287;DHT22;9269;50.838;12.094;2023-04-01T05:26:29;12.90;54.40
18287;DHT22;9269;50.838;12.094;2023-04-01T05:29:02;12.80;54.60
18287;DHT22;9269;50.838;12.094;2023-04-01T05:31:34;12.90;54.30
18287;DHT22;9269;50.838;12.094;2023-04-01T05:34:04;12.90;54.20
18287;DHT22;9269;50.838;12.094;2023-04-01T05:36:33;12.90;54.20
18287;DHT22;9269;50.838;12.094;2023-04-01T05:39:02;13.00;54.30
18287;DHT22;9269;50.838;12.094;2023-04-01T05:41:33;13.00;54.50
18287;DHT22;9269;50.838;12.094;2023-04-01T05:44:04;13.00;54.00
18287;DHT22;9269;50.838;12.094;2023-04-01T05:46:36;13.10;53.90
18287;DHT22;9269;50.838;12.094;2023-04-01T05:49:10;13.00;54.10
18287;DHT22;9269;50.838;12.094;2023-04-01T05:51:41;13.00;53.80
18287;DHT22;9269;50.838;12.094;2023-04-01T05:54:10;13.00;53.90
18287;DHT22;9269;50.838;12.094;2023-04-01T05:56:39;13.00;53.80
18287;DHT22;9269;50.838;12.094;2023-04-01T05:59:10;13.00;53.70
18287;DHT22;9269;50.838;12.094;2023-04-01T06:01:41;13.00;53.70
18287;DHT22;9269;50.838;12.094;2023-04-01T06:04:13;13.00;53.50
18287;DHT22;9269;50.838;12.094;2023-04-01T06:06:44;13.20;53.60
18287;DHT22;9269;50.838;12.094;2023-04-01T06:09:16;13.10;53.70
18287;DHT22;9269;50.838;12.094;2023-04-01T06:12:04;13.20;53.10
18287;DHT22;9269;50.838;12.094;2023-04-01T06:14:40;13.20;53.40
18287;DHT22;9269;50.838;12.094;2023-04-01T06:17:23;13.20;53.40
18287;DHT22;9269;50.838;12.094;2023-04-01T06:20:04;13.20;53.50
18287;DHT22;9269;50.838;12.094;2023-04-01T06:22:49;13.20;53.30
18287;DHT22;9269;50.838;12.094;2023-04-01T06:25:42;13.20;53.70
18287;DHT22;9269;50.838;12.094;2023-04-01T06:28:38;13.30;54.00
18287;DHT22;9269;50.838;12.094;2023-04-01T06:31:20;13.30;53.50
18287;DHT22;9269;50.838;12.094;2023-04-01T06:34:08;13.30;53.70
18287;DHT22;9269;50.838;12.094;2023-04-01T06:36:58;13.30;53.70
18287;DHT22;9269;50.838;12.094;2023-04-01T06:39:47;13.30;54.00
18287;DHT22;9269;50.838;12.094;2023-04-01T06:45:29;13.30;53.70
18287;DHT22;9269;50.838;12.094;2023-04-01T06:48:22;13.40;54.20
18287;DHT22;9269;50.838;12.094;2023-04-01T06:51:06;13.40;54.00
18287;DHT22;9269;50.838;12.094;2023-04-01T06:53:42;13.30;54.40
18287;DHT22;9269;50.838;12.094;2023-04-01T06:56:27;13.50;54.10
18287;DHT22;9269;50.838;12.094;2023-04-01T06:59:05;13.50;54.30
18287;DHT22;9269;50.838;12.094;2023-04-01T07:01:44;13.50;54.50
18287;DHT22;9269;50.838;12.094;2023-04-01T07:04:16;13.50;54.40
18287;DHT22;9269;50.838;12.094;2023-04-01T07:06:52;13.50;54.50
18287;DHT22;9269;50.838;12.094;2023-04-01T07:09:26;13.40;54.10
18287;DHT22;9269;50.838;12.094;2023-04-01T07:12:00;13.50;54.40
18287;DHT22;9269;50.838;12.094;2023-04-01T07:14:32;13.60;54.50
18287;DHT22;9269;50.838;12.094;2023-04-01T07:17:05;13.60;54.60
18287;DHT22;9269;50.838;12.094;2023-04-01T07:19:41;13.70;54.60
18287;DHT22;9269;50.838;12.094;2023-04-01T07:22:21;13.70;54.30
18287;DHT22;9269;50.838;12.094;2023-04-01T07:24:56;13.70;54.50
18287;DHT22;9269;50.838;12.094;2023-04-01T07:27:27;13.70;54.50
18287;DHT22;9269;50.838;12.094;2023-04-01T07:29:57;13.60;54.60
18287;DHT22;9269;50.838;12.094;2023-04-01T07:32:35;13.70;54.70
18287;DHT22;9269;50.838;12.094;2023-04-01T07:35:26;13.60;55.00
18287;DHT22;9269;50.838;12.094;2023-04-01T07:38:15;13.70;54.90
18287;DHT22;9269;50.838;12.094;2023-04-01T07:40:53;13.60;55.20
18287;DHT22;9269;50.838;12.094;2023-04-01T07:43:37;13.70;54.90
18287;DHT22;9269;50.838;12.094;2023-04-01T07:46:17;13.70;55.00
18287;DHT22;9269;50.838;12.094;2023-04-01T07:48:53;13.90;54.90
18287;DHT22;9269;50.838;12.094;2023-04-01T07:51:29;13.90;54.80
18287;DHT22;9269;50.838;12.094;2023-04-01T07:54:06;13.90;54.90
18287;DHT22;9269;50.838;12.094;2023-04-01T07:56:41;14.00;55.00
18287;DHT22;9269;50.838;12.094;2023-04-01T07:59:20;14.00;54.60
18287;DHT22;9269;50.838;12.094;2023-04-01T08:01:54;14.00;54.40
18287;DHT22;9269;50.838;12.094;2023-04-01T08:04:36;14.00;54.00
18287;DHT22;9269;50.838;12.094;2023-04-01T08:07:14;14.10;54.00
18287;DHT22;9269;50.838;12.094;2023-04-01T08:09:52;14.20;53.40
18287;DHT22;9269;50.838;12.094;2023-04-01T08:12:32;14.20;53.10
18287;DHT22;9269;50.838;12.094;2023-04-01T08:15:13;14.30;52.80
18287;DHT22;9269;50.838;12.094;2023-04-01T08:17:53;14.30;52.50
18287;DHT22;9269;50.838;12.094;2023-04-01T08:20:28;14.30;52.30
18287;DHT22;9269;50.838;12.094;2023-04-01T08:23:00;14.40;51.80
18287;DHT22;9269;50.838;12.094;2023-04-01T08:25:34;14.40;51.60
18287;DHT22;9269;50.838;12.094;2023-04-01T08:28:13;14.50;51.60
18287;DHT22;9269;50.838;12.094;2023-04-01T08:30:49;14.60;51.30
18287;DHT22;9269;50.838;12.094;2023-04-01T08:33:23;14.70;51.20
18287;DHT22;9269;50.838;12.094;2023-04-01T08:35:56;14.80;51.20
18287;DHT22;9269;50.838;12.094;2023-04-01T08:38:31;14.80;50.90
18287;DHT22;9269;50.838;12.094;2023-04-01T08:41:31;15.00;50.70
18287;DHT22;9269;50.838;12.094;2023-04-01T08:47:29;15.00;50.60
18287;DHT22;9269;50.838;12.094;2023-04-01T08:50:42;15.00;50.10
18287;DHT22;9269;50.838;12.094;2023-04-01T08:53:21;15.00;49.70
18287;DHT22;9269;50.838;12.094;2023-04-01T08:56:09;15.00;49.30
18287;DHT22;9269;50.838;12.094;2023-04-01T09:02:12;15.10;49.60
18287;DHT22;9269;50.838;12.094;2023-04-01T09:05:12;15.10;49.30
18287;DHT22;9269;50.838;12.094;2023-04-01T09:07:53;15.10;49.20
18287;DHT22;9269;50.838;12.094;2023-04-01T09:11:06;15.10;49.30
18287;DHT22;9269;50.838;12.094;2023-04-01T09:17:12;15.10;48.90
18287;DHT22;9269;50.838;12.094;2023-04-01T09:20:03;15.10;48.80
18287;DHT22;9269;50.838;12.094;2023-04-01T09:22:53;15.10;48.80
18287;DHT22;9269;50.838;12.094;2023-04-01T09:25:38;15.10;48.50
18287;DHT22;9269;50.838;12.094;2023-04-01T09:28:17;15.10;48.70
18287;DHT22;9269;50.838;12.094;2023-04-01T09:31:15;15.30;48.80
18287;DHT22;9269;50.838;12.094;2023-04-01T09:37:35;15.30;48.60
18287;DHT22;9269;50.838;12.094;2023-04-01T09:40:16;15.40;48.30
18287;DHT22;9269;50.838;12.094;2023-04-01T09:43:14;15.40;47.00
18287;DHT22;9269;50.838;12.094;2023-04-01T09:45:56;15.50;47.10
18287;DHT22;9269;50.838;12.094;2023-04-01T09:51:42;15.50;46.50
18287;DHT22;9269;50.838;12.094;2023-04-01T09:54:34;15.50;46.60
18287;DHT22;9269;50.838;12.094;2023-04-01T10:00:46;15.40;46.50
18287;DHT22;9269;50.838;12.094;2023-04-01T10:04:17;15.40;46.80
18287;DHT22;9269;50.838;12.094;2023-04-01T10:07:18;15.40;47.80
18287;DHT22;9269;50.838;12.094;2023-04-01T10:13:35;15.60;46.40
18287;DHT22;9269;50.838;12.094;2023-04-01T10:16:38;15.50;46.40
18287;DHT22;9269;50.838;12.094;2023-04-01T10:22:48;15.70;46.20
18287;DHT22;9269;50.838;12.094;2023-04-01T10:31:49;16.00;45.80
18287;DHT22;9269;50.838;12.094;2023-04-01T10:38:33;16.30;45.50
18287;DHT22;9269;50.838;12.094;2023-04-01T10:41:17;16.30;45.60
18287;DHT22;9269;50.838;12.094;2023-04-01T10:47:19;16.30;45.10
18287;DHT22;9269;50.838;12.094;2023-04-01T10:53:19;16.40;45.10
18287;DHT22;9269;50.838;12.094;2023-04-01T10:56:12;16.40;45.00
18287;DHT22;9269;50.838;12.094;2023-04-01T11:02:20;16.30;45.00
18287;DHT22;9269;50.838;12.094;2023-04-01T11:11:14;16.30;45.00
18287;DHT22;9269;50.838;12.094;2023-04-01T11:23:40;16.00;45.40
18287;DHT22;9269;50.838;12.094;2023-04-01T11:26:40;15.90;45.10
18287;DHT22;9269;50.838;12.094;2023-04-01T11:29:28;15.90;45.60
18287;DHT22;9269;50.838;12.094;2023-04-01T11:32:19;15.90;45.60
18287;DHT22;9269;50.838;12.094;2023-04-01T11:34:58;15.90;45.70
18287;DHT22;9269;50.838;12.094;2023-04-01T11:37:38;15.90;45.90
18287;DHT22;9269;50.838;12.094;2023-04-01T11:40:17;15.80;46.10
18287;DHT22;9269;50.838;12.094;2023-04-01T11:42:57;16.00;46.10
18287;DHT22;9269;50.838;12.094;2023-04-01T11:45:35;16.00;46.60
18287;DHT22;9269;50.838;12.094;2023-04-01T11:48:16;15.90;46.60
18287;DHT22;9269;50.838;12.094;2023-04-01T11:53:53;16.00;46.80
18287;DHT22;9269;50.838;12.094;2023-04-01T11:56:44;16.00;46.80
18287;DHT22;9269;50.838;12.094;2023-04-01T11:59:41;15.90;46.90
18287;DHT22;9269;50.838;12.094;2023-04-01T12:02:18;15.70;46.70
18287;DHT22;9269;50.838;12.094;2023-04-01T12:05:03;15.60;47.70
18287;DHT22;9269;50.838;12.094;2023-04-01T12:07:51;15.70;47.60
18287;DHT22;9269;50.838;12.094;2023-04-01T12:10:28;15.70;47.80
18287;DHT22;9269;50.838;12.094;2023-04-01T12:13:04;15.60;47.50
18287;DHT22;9269;50.838;12.094;2023-04-01T12:15:49;15.70;47.40
18287;DHT22;9269;50.838;12.094;2023-04-01T12:18:25;15.60;48.10
18287;DHT22;9269;50.838;12.094;2023-04-01T12:21:00;15.60;48.20
18287;DHT22;9269;50.838;12.094;2023-04-01T12:23:48;15.60;48.40
18287;DHT22;9269;50.838;12.094;2023-04-01T12:26:36;15.70;48.30
18287;DHT22;9269;50.838;12.094;2023-04-01T12:29:37;15.60;48.50
18287;DHT22;9269;50.838;12.094;2023-04-01T12:32:17;15.60;48.60
18287;DHT22;9269;50.838;12.094;2023-04-01T12:35:04;15.60;48.60
18287;DHT22;9269;50.838;12.094;2023-04-01T12:37:41;15.70;48.10
18287;DHT22;9269;50.838;12.094;2023-04-01T12:40:37;15.70;48.40
18287;DHT22;9269;50.838;12.094;2023-04-01T12:43:44;15.80;48.50
18287;DHT22;9269;50.838;12.094;2023-04-01T12:46:23;15.80;48.50
18287;DHT22;9269;50.838;12.094;2023-04-01T12:49:25;15.80;47.90
18287;DHT22;9269;50.838;12.094;2023-04-01T12:52:08;15.80;48.40
18287;DHT22;9269;50.838;12.094;2023-04-01T12:58:10;15.90;48.10
18287;DHT22;9269;50.838;12.094;2023-04-01T13:04:04;15.90;47.80
18287;DHT22;9269;50.838;12.094;2023-04-01T13:06:48;15.90;48.00
18287;DHT22;9269;50.838;12.094;2023-04-01T13:09:33;15.90;48.40
18287;DHT22;9269;50.838;12.094;2023-04-01T13:12:23;15.90;48.20
18287;DHT22;9269;50.838;12.094;2023-04-01T13:15:10;15.90;48.50
18287;DHT22;9269;50.838;12.094;2023-04-01T13:17:49;15.90;48.40
18287;DHT22;9269;50.838;12.094;2023-04-01T13:20:28;16.00;48.40
18287;DHT22;9269;50.838;12.094;2023-04-01T13:23:09;16.00;48.20
18287;DHT22;9269;50.838;12.094;2023-04-01T13:25:45;16.00;48.40
18287;DHT22;9269;50.838;12.094;2023-04-01T13:28:25;16.00;48.60
18287;DHT22;9269;50.838;12.094;2023-04-01T13:30:59;15.90;48.40
18287;DHT22;9269;50.838;12.094;2023-04-01T13:33:36;15.90;48.10
18287;DHT22;9269;50.838;12.094;2023-04-01T13:36:17;16.00;48.10
18287;DHT22;9269;50.838;12.094;2023-04-01T13:38:59;16.00;47.80
18287;DHT22;9269;50.838;12.094;2023-04-01T13:41:38;15.90;47.40
18287;DHT22;9269;50.838;12.094;2023-04-01T13:44:14;15.80;47.40
18287;DHT22;9269;50.838;12.094;2023-04-01T13:47:11;15.80;47.30
18287;DHT22;9269;50.838;12.094;2023-04-01T13:49:57;15.90;47.20
18287;DHT22;9269;50.838;12.094;2023-04-01T13:52:53;15.80;47.10
18287;DHT22;9269;50.838;12.094;2023-04-01T13:58:39;15.80;46.60
18287;DHT22;9269;50.838;12.094;2023-04-01T14:01:15;15.80;46.60
18287;DHT22;9269;50.838;12.094;2023-04-01T14:06:49;15.80;46.50
18287;DHT22;9269;50.838;12.094;2023-04-01T14:09:45;15.80;46.40
18287;DHT22;9269;50.838;12.094;2023-04-01T14:12:26;15.90;46.40
18287;DHT22;9269;50.838;12.094;2023-04-01T14:15:14;15.90;46.50
18287;DHT22;9269;50.838;12.094;2023-04-01T14:17:57;15.90;46.40
18287;DHT22;9269;50.838;12.094;2023-04-01T14:20:36;16.00;46.10
18287;DHT22;9269;50.838;12.094;2023-04-01T14:23:30;15.90;46.50
18287;DHT22;9269;50.838;12.094;2023-04-01T14:26:14;15.80;46.60
18287;DHT22;9269;50.838;12.094;2023-04-01T14:28:56;15.80;46.90
18287;DHT22;9269;50.838;12.094;2023-04-01T14:31:37;15.70;47.10
18287;DHT22;9269;50.838;12.094;2023-04-01T14:34:22;15.70;47.60
18287;DHT22;9269;50.838;12.094;2023-04-01T14:37:04;15.60;48.00
18287;DHT22;9269;50.838;12.094;2023-04-01T14:39:47;15.60;47.50
18287;DHT22;9269;50.838;12.094;2023-04-01T14:42:41;15.70;48.00
18287;DHT22;9269;50.838;12.094;2023-04-01T14:45:31;15.80;48.10
18287;DHT22;9269;50.838;12.094;2023-04-01T14:48:13;15.90;48.10
18287;DHT22;9269;50.838;12.094;2023-04-01T14:50:48;16.00;48.50
18287;DHT22;9269;50.838;12.094;2023-04-01T14:53:27;16.10;48.30
18287;DHT22;9269;50.838;12.094;2023-04-01T14:55:58;16.10;48.40
18287;DHT22;9269;50.838;12.094;2023-04-01T14:58:41;16.00;48.50
18287;DHT22;9269;50.838;12.094;2023-04-01T15:01:30;16.00;48.30
18287;DHT22;9269;50.838;12.094;2023-04-01T15:04:15;16.00;48.60
18287;DHT22;9269;50.838;12.094;2023-04-01T15:07:00;15.90;48.30
18287;DHT22;9269;50.838;12.094;2023-04-01T15:09:39;15.90;48.20
18287;DHT22;9269;50.838;12.094;2023-04-01T15:12:20;15.90;48.40
18287;DHT22;9269;50.838;12.094;2023-04-01T15:15:00;15.90;48.10
18287;DHT22;9269;50.838;12.094;2023-04-01T15:17:45;15.90;48.20
18287;DHT22;9269;50.838;12.094;2023-04-01T15:20:25;15.80;47.80
18287;DHT22;9269;50.838;12.094;2023-04-01T15:23:15;15.90;48.10
18287;DHT22;9269;50.838;12.094;2023-04-01T15:26:08;15.70;47.70
18287;DHT22;9269;50.838;12.094;2023-04-01T15:28:45;15.80;47.80
18287;DHT22;9269;50.838;12.094;2023-04-01T15:31:17;15.70;47.80
18287;DHT22;9269;50.838;12.094;2023-04-01T15:34:02;15.70;47.60
18287;DHT22;9269;50.838;12.094;2023-04-01T15:36:42;15.80;47.80
18287;DHT22;9269;50.838;12.094;2023-04-01T15:39:19;15.80;47.90
18287;DHT22;9269;50.838;12.094;2023-04-01T15:42:09;15.80;48.10
18287;DHT22;9269;50.838;12.094;2023-04-01T15:44:52;15.60;48.10
18287;DHT22;9269;50.838;12.094;2023-04-01T15:47:37;15.60;48.70
18287;DHT22;9269;50.838;12.094;2023-04-01T15:53:34;15.50;48.90
18287;DHT22;9269;50.838;12.094;2023-04-01T15:56:19;15.50;48.90
18287;DHT22;9269;50.838;12.094;2023-04-01T15:59:00;15.50;49.00
18287;DHT22;9269;50.838;12.094;2023-04-01T16:01:38;15.50;49.00
18287;DHT22;9269;50.838;12.094;2023-04-01T16:04:22;15.40;49.20
18287;DHT22;9269;50.838;12.094;2023-04-01T16:06:59;15.50;48.90
18287;DHT22;9269;50.838;12.094;2023-04-01T16:09:42;15.50;49.20
18287;DHT22;9269;50.838;12.094;2023-04-01T16:12:17;15.50;49.20
18287;DHT22;9269;50.838;12.094;2023-04-01T16:14:57;15.50;48.80
18287;DHT22;9269;50.838;12.094;2023-04-01T16:20:44;15.60;48.40
18287;DHT22;9269;50.838;12.094;2023-04-01T16:23:20;15.50;48.70
18287;DHT22;9269;50.838;12.094;2023-04-01T16:26:01;15.50;48.50
18287;DHT22;9269;50.838;12.094;2023-04-01T16:28:32;15.50;48.90
18287;DHT22;9269;50.838;12.094;2023-04-01T16:31:06;15.50;48.90
18287;DHT22;9269;50.838;12.094;2023-04-01T16:33:46;15.50;48.90
18287;DHT22;9269;50.838;12.094;2023-04-01T16:36:26;15.50;48.80
18287;DHT22;9269;50.838;12.094;2023-04-01T16:39:08;15.50;49.30
18287;DHT22;9269;50.838;12.094;2023-04-01T16:41:47;15.40;49.50
18287;DHT22;9269;50.838;12.094;2023-04-01T16:44:19;15.40;49.60
18287;DHT22;9269;50.838;12.094;2023-04-01T16:46:51;15.30;50.40
18287;DHT22;9269;50.838;12.094;2023-04-01T16:49:28;15.40;49.60
18287;DHT22;9269;50.838;12.094;2023-04-01T16:52:12;15.30;50.70
18287;DHT22;9269;50.838;12.094;2023-04-01T16:54:45;15.30;51.20
18287;DHT22;9269;50.838;12.094;2023-04-01T16:57:19;15.30;50.80
18287;DHT22;9269;50.838;12.094;2023-04-01T16:59:55;15.30;51.10
18287;DHT22;9269;50.838;12.094;2023-04-01T17:02:28;15.20;51.30
18287;DHT22;9269;50.838;12.094;2023-04-01T17:05:00;15.30;51.30
18287;DHT22;9269;50.838;12.094;2023-04-01T17:07:40;15.20;51.10
18287;DHT22;9269;50.838;12.094;2023-04-01T17:10:40;15.10;51.70
18287;DHT22;9269;50.838;12.094;2023-04-01T17:13:29;15.10;51.70
18287;DHT22;9269;50.838;12.094;2023-04-01T17:16:15;15.10;51.70
18287;DHT22;9269;50.838;12.094;2023-04-01T17:18:52;15.00;51.60
18287;DHT22;9269;50.838;12.094;2023-04-01T17:21:29;15.10;51.70
18287;DHT22;9269;50.838;12.094;2023-04-01T17:24:12;15.10;51.70
18287;DHT22;9269;50.838;12.094;2023-04-01T17:26:46;15.10;51.30
18287;DHT22;9269;50.838;12.094;2023-04-01T17:29:26;15.00;51.80
18287;DHT22;9269;50.838;12.094;2023-04-01T17:32:04;15.00;51.10
18287;DHT22;9269;50.838;12.094;2023-04-01T17:34:48;15.00;51.50
18287;DHT22;9269;50.838;12.094;2023-04-01T17:37:30;15.00;51.20
18287;DHT22;9269;50.838;12.094;2023-04-01T17:40:15;15.00;51.20
18287;DHT22;9269;50.838;12.094;2023-04-01T17:42:49;15.00;51.20
18287;DHT22;9269;50.838;12.094;2023-04-01T17:45:32;15.00;51.20
18287;DHT22;9269;50.838;12.094;2023-04-01T17:48:12;14.90;51.50
18287;DHT22;9269;50.838;12.094;2023-04-01T17:50:58;15.00;51.20
18287;DHT22;9269;50.838;12.094;2023-04-01T17:53:36;14.90;51.30
18287;DHT22;9269;50.838;12.094;2023-04-01T17:56:14;14.90;51.30
18287;DHT22;9269;50.838;12.094;2023-04-01T17:58:46;14.90;51.50
18287;DHT22;9269;50.838;12.094;2023-04-01T18:01:31;14.90;51.50
18287;DHT22;9269;50.838;12.094;2023-04-01T18:04:37;14.90;51.50
18287;DHT22;9269;50.838;12.094;2023-04-01T18:07:30;14.80;52.10
18287;DHT22;9269;50.838;12.094;2023-04-01T18:10:17;14.70;51.80
18287;DHT22;9269;50.838;12.094;2023-04-01T18:13:20;14.70;51.60
18287;DHT22;9269;50.838;12.094;2023-04-01T18:15:58;14.80;51.90
18287;DHT22;9269;50.838;12.094;2023-04-01T18:18:43;14.70;52.00